createdAt,value
2018-07-27T00:00:47.378Z,8.20
2018-07-27T00:03:16.079Z,8.30
2018-07-27T00:05:44.790Z,8.30
2018-07-27T00:08:13.363Z,7.53
2018-07-27T00:10:41.969Z,8.03
2018-07-27T00:13:10.535Z,8.13
2018-07-27T00:15:39.312Z,7.87
2018-07-27T00:18:07.834Z,8.43
2018-07-27T00:20:36.584Z,8.17
2018-07-27T00:23:05.367Z,8.63
2018-07-27T00:25:34.010Z,7.97
2018-07-27T00:28:02.642Z,8.37
2018-07-27T00:30:32.040Z,7.60
2018-07-27T00:33:00.677Z,7.27
2018-07-27T00:35:29.390Z,7.80
2018-07-27T00:37:58.087Z,8.67
2018-07-27T00:40:26.765Z,7.80
2018-07-27T00:42:55.479Z,7.30
2018-07-27T00:45:24.131Z,7.63
2018-07-27T00:47:52.717Z,8.63
2018-07-27T00:50:21.386Z,8.73
2018-07-27T00:52:50.009Z,7.87
2018-07-27T00:55:18.701Z,8.40
2018-07-27T00:57:47.353Z,7.63
2018-07-27T01:00:16.951Z,8.47
2018-07-27T01:02:45.512Z,8.47
2018-07-27T01:05:14.141Z,8.47
2018-07-27T01:07:42.861Z,7.87
2018-07-27T01:10:11.544Z,7.87
2018-07-27T01:12:40.180Z,8.57
2018-07-27T01:15:08.887Z,7.90
2018-07-27T01:17:37.729Z,9.73
2018-07-27T01:20:07.856Z,8.40
2018-07-27T01:22:36.909Z,8.10
2018-07-27T01:25:05.508Z,7.97
2018-07-27T01:27:34.363Z,8.73
2018-07-27T01:30:02.949Z,8.70
2018-07-27T01:32:32.649Z,8.10
2018-07-27T01:35:01.476Z,8.53
2018-07-27T01:37:30.229Z,8.37
2018-07-27T01:39:59.009Z,8.23
2018-07-27T01:42:27.492Z,8.00
2018-07-27T01:44:57.203Z,7.87
2018-07-27T01:47:26.413Z,8.10
2018-07-27T01:49:54.934Z,8.30
2018-07-27T01:52:23.542Z,8.10
2018-07-27T01:54:52.575Z,8.10
2018-07-27T01:57:22.053Z,8.37
2018-07-27T01:59:50.681Z,7.77
2018-07-27T02:02:22.175Z,9.40
2018-07-27T02:04:50.741Z,7.80
2018-07-27T02:07:19.430Z,8.50
2018-07-27T02:09:47.993Z,8.50
2018-07-27T02:12:16.616Z,8.20
2018-07-27T02:14:45.246Z,8.30
2018-07-27T02:17:13.891Z,7.90
2018-07-27T02:19:42.600Z,7.90
2018-07-27T02:22:11.282Z,8.13
2018-07-27T02:24:39.792Z,8.10
2018-07-27T02:27:08.532Z,8.00
2018-07-27T02:29:37.268Z,8.60
2018-07-27T02:32:06.409Z,9.60
2018-07-27T02:34:34.951Z,8.83
2018-07-27T02:37:03.710Z,8.90
2018-07-27T02:39:32.312Z,9.40
2018-07-27T02:42:00.943Z,7.93
2018-07-27T02:44:29.728Z,8.37
2018-07-27T02:46:58.978Z,8.17
2018-07-27T02:49:27.612Z,8.13
2018-07-27T02:51:56.162Z,8.93
2018-07-27T02:54:25.023Z,9.40
2018-07-27T02:56:53.628Z,7.83
2018-07-27T02:59:22.382Z,8.10
2018-07-27T03:01:51.091Z,7.80
2018-07-27T03:04:19.769Z,8.47
2018-07-27T03:06:48.662Z,9.33
2018-07-27T03:09:17.596Z,8.30
2018-07-27T03:11:46.179Z,7.90
2018-07-27T03:14:14.821Z,8.03
2018-07-27T03:16:43.526Z,8.17
2018-07-27T03:19:12.305Z,8.83
2018-07-27T03:21:40.909Z,7.73
2018-07-27T03:24:09.493Z,8.07
2018-07-27T03:26:38.255Z,8.63
2018-07-27T03:29:07.030Z,7.80
2018-07-27T03:31:35.691Z,8.23
2018-07-27T03:34:04.264Z,8.13
2018-07-27T03:36:32.903Z,8.33
2018-07-27T03:39:01.682Z,7.33
2018-07-27T03:41:30.201Z,8.00
2018-07-27T03:43:58.860Z,7.47
2018-07-27T03:46:27.530Z,7.17
2018-07-27T03:48:56.125Z,8.70
2018-07-27T03:51:25.027Z,7.83
2018-07-27T03:53:53.636Z,8.47
2018-07-27T03:56:22.297Z,7.73
2018-07-27T03:58:50.969Z,7.90
2018-07-27T04:01:19.589Z,7.80
2018-07-27T04:03:48.173Z,6.50
2018-07-27T04:06:16.756Z,7.13
2018-07-27T04:08:46.060Z,6.30
2018-07-27T04:11:14.649Z,6.87
2018-07-27T04:13:43.309Z,6.50
2018-07-27T04:16:12.016Z,6.83
2018-07-27T04:18:40.737Z,7.83
2018-07-27T04:21:09.440Z,7.90
2018-07-27T04:23:38.218Z,7.43
2018-07-27T04:26:06.893Z,7.23
2018-07-27T04:28:35.545Z,7.17
2018-07-27T04:31:04.176Z,7.37
2018-07-27T04:33:32.785Z,7.20
2018-07-27T04:36:01.375Z,7.57
2018-07-27T04:38:30.075Z,7.03
2018-07-27T04:40:58.784Z,8.10
2018-07-27T04:43:27.357Z,6.77
2018-07-27T04:45:56.298Z,7.53
2018-07-27T04:48:24.850Z,8.63
2018-07-27T04:50:54.573Z,8.13
2018-07-27T04:53:23.209Z,8.20
2018-07-27T04:55:51.872Z,8.30
2018-07-27T04:58:20.594Z,7.63
2018-07-27T05:00:49.424Z,7.50
2018-07-27T05:03:18.200Z,8.17
2018-07-27T05:05:46.840Z,7.70
2018-07-27T05:08:15.699Z,6.40
2018-07-27T05:10:50.346Z,7.33
2018-07-27T05:13:19.917Z,8.00
2018-07-27T05:15:49.698Z,7.13
2018-07-27T05:18:18.727Z,7.40
2018-07-27T05:20:47.735Z,7.33
2018-07-27T05:23:16.388Z,6.77
2018-07-27T05:25:45.191Z,6.97
2018-07-27T05:28:13.747Z,6.27
2018-07-27T05:30:42.356Z,6.40
2018-07-27T05:33:10.994Z,7.20
2018-07-27T05:35:39.608Z,5.90
2018-07-27T05:38:08.389Z,6.00
2018-07-27T05:40:36.938Z,5.37
2018-07-27T05:43:05.584Z,6.50
2018-07-27T05:45:34.388Z,6.00
2018-07-27T05:48:03.076Z,5.93
2018-07-27T05:50:31.674Z,7.23
2018-07-27T05:53:00.433Z,5.77
2018-07-27T05:55:29.099Z,6.80
2018-07-27T05:57:57.697Z,6.57
2018-07-27T06:00:26.289Z,6.33
2018-07-27T06:02:55.121Z,6.13
2018-07-27T06:05:23.653Z,6.23
2018-07-27T06:07:52.456Z,6.20
2018-07-27T06:10:20.974Z,6.40
2018-07-27T06:12:49.592Z,5.80
2018-07-27T06:15:18.278Z,7.10
2018-07-27T06:17:46.906Z,7.00
2018-07-27T06:20:16.525Z,5.97
2018-07-27T06:22:45.408Z,6.20
2018-07-27T06:25:14.125Z,6.10
2018-07-27T06:27:42.768Z,6.60
2018-07-27T06:30:11.456Z,6.30
2018-07-27T06:32:40.081Z,6.20
2018-07-27T06:35:08.805Z,6.10
2018-07-27T06:37:37.373Z,5.73
2018-07-27T06:40:06.404Z,6.10
2018-07-27T06:42:34.989Z,5.63
2018-07-27T06:45:03.753Z,6.43
2018-07-27T06:47:32.475Z,6.17
2018-07-27T06:50:01.249Z,6.13
2018-07-27T06:52:31.071Z,6.00
2018-07-27T06:54:59.952Z,6.23
2018-07-27T06:57:28.496Z,5.87
2018-07-27T06:59:57.133Z,5.93
2018-07-27T07:02:26.801Z,5.73
2018-07-27T07:04:56.168Z,5.47
2018-07-27T07:07:24.699Z,5.40
2018-07-27T07:09:53.370Z,5.10
2018-07-27T07:12:21.941Z,5.20
2018-07-27T07:14:50.764Z,4.70
2018-07-27T07:17:19.248Z,5.80
2018-07-27T07:19:47.849Z,5.60
2018-07-27T07:22:16.469Z,5.40
2018-07-27T07:24:45.725Z,4.97
2018-07-27T07:27:15.896Z,4.97
2018-07-27T07:29:44.732Z,5.50
2018-07-27T07:32:13.488Z,5.90
2018-07-27T07:34:42.037Z,5.23
2018-07-27T07:37:10.752Z,5.27
2018-07-27T07:39:39.379Z,5.30
2018-07-27T07:42:08.095Z,5.07
2018-07-27T07:44:37.417Z,5.67
2018-07-27T07:47:06.294Z,4.73
2018-07-27T07:49:34.849Z,5.90
2018-07-27T07:52:03.556Z,5.20
2018-07-27T07:54:32.272Z,5.60
2018-07-27T07:57:00.845Z,4.80
2018-07-27T07:59:29.403Z,5.60
2018-07-27T08:01:58.148Z,4.80
2018-07-27T08:04:26.750Z,4.60
2018-07-27T08:06:55.312Z,4.73
2018-07-27T08:09:24.126Z,6.53
2018-07-27T08:11:52.830Z,5.00
2018-07-27T08:14:21.580Z,6.00
2018-07-27T08:16:50.282Z,4.53
2018-07-27T08:19:18.950Z,5.37
2018-07-27T08:21:47.545Z,5.40
2018-07-27T08:24:16.095Z,4.20
2018-07-27T08:26:47.097Z,5.10
2018-07-27T08:29:17.326Z,4.50
2018-07-27T08:31:47.524Z,5.67
2018-07-27T08:34:16.799Z,4.93
2018-07-27T08:36:45.433Z,4.90
2018-07-27T08:39:16.019Z,4.63
2018-07-27T08:41:45.191Z,5.30
2018-07-27T08:44:15.096Z,4.80
2018-07-27T08:46:44.234Z,5.20
2018-07-27T08:49:13.353Z,4.20
2018-07-27T08:51:41.969Z,4.03
2018-07-27T08:54:12.280Z,4.40
2018-07-27T08:56:41.067Z,5.30
2018-07-27T08:59:09.600Z,4.33
2018-07-27T09:01:38.294Z,4.93
2018-07-27T09:04:07.078Z,4.40
2018-07-27T09:06:35.677Z,4.77
2018-07-27T09:09:06.905Z,4.87
2018-07-27T09:11:35.537Z,4.20
2018-07-27T09:14:04.151Z,5.13
2018-07-27T09:16:32.378Z,4.67
2018-07-27T09:19:01.085Z,4.50
2018-07-27T09:21:29.861Z,5.40
2018-07-27T09:23:58.573Z,5.50
2018-07-27T09:26:27.657Z,5.40
2018-07-27T09:28:56.284Z,4.53
2018-07-27T09:31:24.979Z,5.67
2018-07-27T09:33:53.524Z,4.70
2018-07-27T09:36:23.583Z,4.53
2018-07-27T09:38:53.000Z,4.90
2018-07-27T09:41:21.593Z,5.03
2018-07-27T09:43:50.756Z,4.97
2018-07-27T09:46:19.333Z,5.10
2018-07-27T09:48:50.845Z,4.80
2018-07-27T09:51:20.527Z,4.17
2018-07-27T09:53:49.238Z,4.87
2018-07-27T09:56:17.789Z,4.63
2018-07-27T09:58:46.434Z,4.03
2018-07-27T10:01:20.398Z,4.70
2018-07-27T10:03:49.207Z,4.33
2018-07-27T10:06:17.706Z,5.30
2018-07-27T10:08:46.318Z,5.00
2018-07-27T10:11:14.997Z,4.40
2018-07-27T10:13:43.787Z,4.50
2018-07-27T10:16:12.264Z,5.47
2018-07-27T10:18:41.176Z,4.30
2018-07-27T10:21:10.118Z,3.90
2018-07-27T10:23:39.002Z,4.20
2018-07-27T10:26:07.761Z,4.67
2018-07-27T10:28:36.395Z,4.10
2018-07-27T10:31:05.844Z,4.40
2018-07-27T10:33:34.433Z,4.40
2018-07-27T10:36:03.564Z,4.43
2018-07-27T10:38:32.158Z,4.50
2018-07-27T10:41:00.890Z,4.30
2018-07-27T10:43:29.532Z,3.63
2018-07-27T10:45:58.086Z,3.80
2018-07-27T10:48:26.600Z,4.60
2018-07-27T10:50:55.292Z,3.93
2018-07-27T10:53:24.077Z,4.00
2018-07-27T10:55:52.892Z,4.57
2018-07-27T10:58:21.426Z,4.30
2018-07-27T11:00:49.975Z,4.13
2018-07-27T11:03:18.284Z,4.63
2018-07-27T11:05:47.138Z,4.10
2018-07-27T11:08:15.697Z,3.80
2018-07-27T11:10:44.268Z,3.77
2018-07-27T11:13:12.934Z,4.67
2018-07-27T11:15:41.808Z,3.70
2018-07-27T11:18:10.407Z,4.37
2018-07-27T11:20:39.408Z,4.80
2018-07-27T11:23:08.432Z,4.70
2018-07-27T11:25:37.034Z,5.30
2018-07-27T11:28:05.605Z,5.20
2018-07-27T11:30:34.144Z,4.13
2018-07-27T11:33:02.745Z,4.03
2018-07-27T11:35:31.338Z,4.77
2018-07-27T11:37:59.894Z,4.60
2018-07-27T11:40:28.439Z,4.90
2018-07-27T11:42:56.934Z,4.50
2018-07-27T11:45:25.460Z,4.20
2018-07-27T11:47:53.985Z,4.53
2018-07-27T11:50:22.516Z,4.23
2018-07-27T11:52:51.038Z,4.60
2018-07-27T11:55:20.041Z,4.60
2018-07-27T11:57:48.551Z,5.20
2018-07-27T12:00:17.330Z,4.70
2018-07-27T12:02:45.882Z,4.60
2018-07-27T12:05:14.437Z,5.07
2018-07-27T12:07:42.716Z,4.37
2018-07-27T12:10:11.350Z,4.30
2018-07-27T12:12:39.848Z,4.63
2018-07-27T12:15:08.551Z,4.70
2018-07-27T12:17:36.997Z,4.43
2018-07-27T12:20:05.576Z,4.70
2018-07-27T12:22:34.320Z,4.90
2018-07-27T12:25:03.035Z,4.53
2018-07-27T12:27:31.629Z,4.87
2018-07-27T12:30:00.262Z,4.77
2018-07-27T12:32:28.921Z,5.03
2018-07-27T12:34:57.183Z,4.70
2018-07-27T12:37:26.282Z,5.00
2018-07-27T12:39:54.965Z,4.03
2018-07-27T12:42:23.510Z,4.63
2018-07-27T12:44:52.112Z,5.03
2018-07-27T12:47:20.521Z,4.73
2018-07-27T12:49:49.022Z,4.70
2018-07-27T12:52:17.541Z,4.53
2018-07-27T12:54:46.060Z,4.40
2018-07-27T12:57:14.565Z,4.90
2018-07-27T12:59:43.172Z,4.40
2018-07-27T13:02:11.734Z,5.10
2018-07-27T13:04:40.257Z,4.40
2018-07-27T13:07:08.797Z,5.23
2018-07-27T13:09:37.300Z,5.60
2018-07-27T13:12:05.832Z,4.30
2018-07-27T13:17:02.820Z,4.77
2018-07-27T13:19:31.347Z,4.00
2018-07-27T13:21:59.901Z,4.43
2018-07-27T13:26:56.930Z,4.60
2018-07-27T13:29:25.167Z,4.60
2018-07-27T13:31:56.480Z,5.80
2018-07-27T13:34:40.234Z,4.70
2018-07-27T13:37:09.236Z,5.00
2018-07-27T13:39:38.523Z,4.90
2018-07-27T13:42:08.033Z,4.83
2018-07-27T13:44:37.924Z,4.63
2018-07-27T13:47:07.207Z,4.80
2018-07-27T13:49:35.760Z,5.00
2018-07-27T13:52:03.965Z,5.00
2018-07-27T13:54:33.455Z,5.00
2018-07-27T13:57:02.338Z,4.40
2018-07-27T13:59:30.963Z,5.10
2018-07-27T14:01:59.569Z,5.17
2018-07-27T14:04:28.247Z,5.90
2018-07-27T14:06:58.654Z,5.40
2018-07-27T14:09:27.178Z,4.77
2018-07-27T14:11:55.684Z,4.60
2018-07-27T14:14:24.264Z,4.80
2018-07-27T14:16:52.720Z,5.33
2018-07-27T14:19:21.529Z,5.60
2018-07-27T14:21:50.165Z,4.93
2018-07-27T14:24:18.759Z,5.20
2018-07-27T14:26:47.368Z,4.80
2018-07-27T14:29:15.935Z,4.60
2018-07-27T14:31:44.468Z,4.37
2018-07-27T14:34:12.946Z,5.53
2018-07-27T14:36:41.455Z,5.50
2018-07-27T14:39:13.073Z,4.50
2018-07-27T14:41:42.043Z,4.73
2018-07-27T14:44:10.574Z,4.63
2018-07-27T14:46:39.332Z,4.67
2018-07-27T14:49:11.399Z,4.50
2018-07-27T14:51:40.573Z,4.13
2018-07-27T14:54:10.445Z,4.10
2018-07-27T14:56:39.578Z,4.03
2018-07-27T14:59:08.737Z,4.90
2018-07-27T15:01:37.402Z,4.10
2018-07-27T15:04:06.200Z,4.10
2018-07-27T15:06:34.745Z,4.30
2018-07-27T15:09:03.787Z,4.47
2018-07-27T15:11:32.244Z,4.40
2018-07-27T15:14:00.766Z,4.13
2018-07-27T15:16:29.242Z,4.00
2018-07-27T15:18:57.755Z,4.60
2018-07-27T15:21:26.194Z,4.33
2018-07-27T15:23:54.359Z,3.57
2018-07-27T15:26:22.849Z,4.07
2018-07-27T15:28:51.368Z,3.93
2018-07-27T15:31:19.949Z,4.43
2018-07-27T15:33:48.624Z,4.23
2018-07-27T15:36:17.395Z,3.90
2018-07-27T15:38:45.905Z,3.90
2018-07-27T15:41:14.436Z,3.73
2018-07-27T15:43:42.931Z,3.93
2018-07-27T15:46:11.692Z,4.80
2018-07-27T15:48:41.544Z,3.70
2018-07-27T15:51:10.119Z,3.67
2018-07-27T15:53:39.687Z,3.80
2018-07-27T15:56:08.253Z,4.33
2018-07-27T15:58:36.972Z,3.67
2018-07-27T16:01:06.205Z,4.50
2018-07-27T16:03:35.056Z,3.90
2018-07-27T16:06:03.368Z,3.93
2018-07-27T16:08:32.170Z,3.40
2018-07-27T16:11:00.905Z,3.93
2018-07-27T16:13:29.696Z,3.70
2018-07-27T16:15:58.305Z,4.17
2018-07-27T16:18:26.809Z,3.77
2018-07-27T16:20:55.633Z,4.00
2018-07-27T16:23:24.221Z,4.30
2018-07-27T16:25:52.738Z,4.50
2018-07-27T16:28:21.255Z,4.40
2018-07-27T16:30:49.932Z,4.20
2018-07-27T16:33:18.425Z,4.37
2018-07-27T16:35:47.243Z,4.03
2018-07-27T16:38:15.806Z,3.87
2018-07-27T16:40:44.985Z,4.07
2018-07-27T16:43:13.645Z,4.33
2018-07-27T16:45:42.644Z,4.50
2018-07-27T16:48:11.188Z,4.50
2018-07-27T16:50:41.007Z,4.30
2018-07-27T16:53:09.547Z,4.17
2018-07-27T16:55:39.019Z,4.03
2018-07-27T16:58:07.856Z,4.50
2018-07-27T17:00:36.877Z,4.30
2018-07-27T17:03:07.642Z,4.30
2018-07-27T17:05:36.282Z,4.23
2018-07-27T17:08:05.194Z,4.20
2018-07-27T17:10:33.768Z,4.30
2018-07-27T17:13:02.437Z,5.27
2018-07-27T17:15:32.112Z,4.50
2018-07-27T17:18:01.710Z,5.00
2018-07-27T17:20:30.410Z,4.33
2018-07-27T17:22:59.115Z,4.77
2018-07-27T17:25:27.717Z,4.30
2018-07-27T17:27:56.196Z,4.87
2018-07-27T17:30:24.955Z,4.77
2018-07-27T17:32:54.001Z,5.10
2018-07-27T17:35:22.596Z,4.40
2018-07-27T17:37:51.411Z,4.57
2018-07-27T17:40:20.169Z,4.93
2018-07-27T17:42:48.797Z,4.73
2018-07-27T17:45:17.457Z,4.57
2018-07-27T17:47:46.539Z,5.67
2018-07-27T17:50:15.246Z,4.70
2018-07-27T17:52:43.629Z,4.93
2018-07-27T17:55:12.384Z,4.40
2018-07-27T17:57:41.060Z,4.70
2018-07-27T18:00:09.716Z,5.10
2018-07-27T18:02:38.578Z,4.87
2018-07-27T18:05:07.404Z,5.27
2018-07-27T18:07:36.241Z,4.63
2018-07-27T18:10:05.404Z,4.70
2018-07-27T18:12:34.155Z,4.40
2018-07-27T18:15:02.973Z,5.40
2018-07-27T18:17:31.757Z,4.53
2018-07-27T18:20:00.280Z,5.40
2018-07-27T18:22:28.882Z,4.20
2018-07-27T18:24:57.577Z,4.40
2018-07-27T18:27:26.220Z,5.00
2018-07-27T18:29:54.574Z,5.37
2018-07-27T18:32:23.182Z,4.70
2018-07-27T18:34:51.701Z,5.13
2018-07-27T18:37:20.224Z,4.27
2018-07-27T18:39:48.752Z,5.67
2018-07-27T18:42:17.525Z,4.63
2018-07-27T18:44:46.133Z,5.10
2018-07-27T18:47:14.756Z,5.33
2018-07-27T18:49:43.390Z,5.00
2018-07-27T18:52:12.019Z,5.47
2018-07-27T18:54:40.675Z,4.57
2018-07-27T18:57:09.456Z,4.90
2018-07-27T18:59:38.187Z,6.00
2018-07-27T19:02:07.071Z,5.13
2018-07-27T19:04:35.817Z,5.17
2018-07-27T19:07:04.528Z,5.50
2018-07-27T19:09:33.545Z,5.93
2018-07-27T19:12:02.256Z,6.60
2018-07-27T19:14:31.122Z,5.87
2018-07-27T19:16:59.997Z,5.70
2018-07-27T19:19:28.819Z,5.37
2018-07-27T19:21:57.389Z,6.20
2018-07-27T19:24:25.769Z,6.03
2018-07-27T19:26:54.858Z,5.87
2018-07-27T19:29:23.395Z,5.50
2018-07-27T19:31:52.919Z,5.33
2018-07-27T19:34:21.540Z,4.87
2018-07-27T19:36:50.634Z,6.10
2018-07-27T19:39:20.621Z,5.40
2018-07-27T19:41:50.274Z,5.60
2018-07-27T19:44:18.843Z,5.00
2018-07-27T19:46:50.612Z,5.57
2018-07-27T19:49:19.441Z,5.83
2018-07-27T19:51:47.993Z,5.60
2018-07-27T19:54:16.760Z,5.43
2018-07-27T19:56:46.514Z,5.03
2018-07-27T19:59:15.776Z,5.87
2018-07-27T20:01:44.483Z,5.10
2018-07-27T20:04:13.150Z,5.80
2018-07-27T20:06:41.888Z,6.27
2018-07-27T20:09:11.469Z,6.07
2018-07-27T20:11:40.356Z,5.60
2018-07-27T20:14:09.357Z,5.50
2018-07-27T20:16:37.877Z,6.00
2018-07-27T20:19:06.380Z,5.80
2018-07-27T20:21:35.643Z,5.77
2018-07-27T20:24:04.261Z,5.80
2018-07-27T20:26:32.873Z,6.30
2018-07-27T20:29:01.590Z,5.17
2018-07-27T20:31:30.324Z,4.87
2018-07-27T20:33:59.047Z,5.83
2018-07-27T20:36:27.923Z,6.60
2018-07-27T20:38:56.468Z,5.77
2018-07-27T20:41:25.192Z,5.57
2018-07-27T20:43:54.226Z,5.17
2018-07-27T20:46:22.741Z,6.20
2018-07-27T20:48:51.521Z,5.00
2018-07-27T20:51:20.063Z,6.40
2018-07-27T20:53:48.609Z,5.70
2018-07-27T20:56:17.153Z,5.70
2018-07-27T20:58:46.210Z,6.60
2018-07-27T21:01:14.902Z,5.87
2018-07-27T21:03:43.424Z,5.50
2018-07-27T21:06:12.184Z,5.50
2018-07-27T21:08:40.799Z,6.50
2018-07-27T21:11:09.311Z,6.73
2018-07-27T21:13:37.981Z,6.10
2018-07-27T21:16:06.850Z,6.50
2018-07-27T21:18:35.482Z,5.90
2018-07-27T21:21:03.844Z,5.87
2018-07-27T21:23:32.541Z,6.50
2018-07-27T21:26:01.365Z,6.40
2018-07-27T21:28:30.037Z,7.23
2018-07-27T21:30:58.751Z,7.07
2018-07-27T21:33:27.380Z,7.30
2018-07-27T21:35:55.983Z,5.93
2018-07-27T21:38:24.540Z,6.97
2018-07-27T21:40:53.290Z,6.93
2018-07-27T21:43:21.917Z,6.67
2018-07-27T21:45:50.512Z,7.30
2018-07-27T21:48:19.128Z,7.00
2018-07-27T21:50:47.709Z,7.13
2018-07-27T21:53:16.328Z,7.70
2018-07-27T21:55:44.931Z,7.23
2018-07-27T21:58:13.537Z,7.13
2018-07-27T22:00:42.354Z,6.47
2018-07-27T22:03:11.040Z,7.03
2018-07-27T22:05:39.652Z,7.97
2018-07-27T22:08:08.217Z,6.80
2018-07-27T22:10:37.068Z,7.73
2018-07-27T22:13:05.924Z,6.87
2018-07-27T22:15:34.531Z,7.10
2018-07-27T22:18:09.732Z,6.93
2018-07-27T22:20:38.510Z,7.20
2018-07-27T22:23:07.108Z,6.93
2018-07-27T22:25:35.652Z,7.37
2018-07-27T22:28:04.429Z,6.97
2018-07-27T22:30:33.101Z,7.50
2018-07-27T22:33:01.783Z,7.23
2018-07-27T22:35:30.414Z,6.80
2018-07-27T22:37:58.968Z,7.00
2018-07-27T22:40:27.737Z,6.83
2018-07-27T22:42:56.651Z,6.93
2018-07-27T22:45:25.242Z,7.33
2018-07-27T22:47:54.143Z,6.37
2018-07-27T22:50:22.419Z,6.47
2018-07-27T22:52:51.257Z,7.13
2018-07-27T22:55:19.793Z,6.20
2018-07-27T22:57:48.559Z,7.00
2018-07-27T23:00:17.211Z,7.37
2018-07-27T23:02:45.960Z,6.70
2018-07-27T23:05:14.449Z,6.10
2018-07-27T23:07:42.988Z,6.07
2018-07-27T23:10:11.892Z,6.30
2018-07-27T23:12:40.589Z,6.07
2018-07-27T23:15:11.428Z,6.07
2018-07-27T23:17:40.651Z,5.43
2018-07-27T23:20:14.564Z,6.00
2018-07-27T23:22:44.124Z,6.13
2018-07-27T23:25:12.894Z,6.30
2018-07-27T23:27:41.572Z,5.70
2018-07-27T23:30:12.580Z,6.47
2018-07-27T23:32:41.351Z,5.97
2018-07-27T23:35:10.082Z,6.30
2018-07-27T23:37:38.725Z,6.47
2018-07-27T23:40:08.092Z,6.37
2018-07-27T23:42:36.728Z,6.70
2018-07-27T23:45:06.623Z,6.60
2018-07-27T23:47:35.247Z,6.33
2018-07-27T23:50:04.019Z,6.57
2018-07-27T23:52:32.589Z,6.60
2018-07-27T23:55:01.246Z,6.13
2018-07-27T23:57:30.019Z,5.83
2018-07-27T23:59:58.922Z,7.40
